sensor_id;sensor_type;location;lat;lon;timestamp;pressure;altitude;pressure_sealevel;temperature;humidity
48888;BME280;42598;53.802;-1.632;2023-02-04T00:02:18;102457.09;;;12.23;68.43
48888;BME280;42598;53.802;-1.632;2023-02-04T00:04:44;102453.46;;;12.86;65.95
48888;BME280;42598;53.802;-1.632;2023-02-04T00:07:12;102455.74;;;12.55;67.19
48888;BME280;42598;53.802;-1.632;2023-02-04T00:09:41;102453.26;;;11.95;69.33
48888;BME280;42598;53.802;-1.632;2023-02-04T00:12:08;102449.78;;;11.77;69.11
48888;BME280;42598;53.802;-1.632;2023-02-04T00:14:35;102456.11;;;11.55;71.61
48888;BME280;42598;53.802;-1.632;2023-02-04T00:17:02;102456.02;;;12.84;66.66
48888;BME280;42598;53.802;-1.632;2023-02-04T00:19:29;102456.73;;;10.81;73.68
48888;BME280;42598;53.802;-1.632;2023-02-04T00:21:56;102454.91;;;10.01;78.82
48888;BME280;42598;53.802;-1.632;2023-02-04T00:24:23;102456.48;;;8.61;83.11
48888;BME280;42598;53.802;-1.632;2023-02-04T00:26:51;102453.16;;;11.18;75.28
48888;BME280;42598;53.802;-1.632;2023-02-04T00:29:17;102460.30;;;11.81;72.55
48888;BME280;42598;53.802;-1.632;2023-02-04T00:31:48;102455.60;;;12.79;68.77
48888;BME280;42598;53.802;-1.632;2023-02-04T00:34:15;102450.79;;;12.58;69.05
48888;BME280;42598;53.802;-1.632;2023-02-04T00:36:41;102447.12;;;12.06;70.89
48888;BME280;42598;53.802;-1.632;2023-02-04T00:39:09;102449.55;;;12.16;69.41
48888;BME280;42598;53.802;-1.632;2023-02-04T00:41:37;102450.88;;;12.07;70.36
48888;BME280;42598;53.802;-1.632;2023-02-04T00:44:04;102448.37;;;12.65;66.94
48888;BME280;42598;53.802;-1.632;2023-02-04T00:46:32;102452.97;;;12.04;68.24
48888;BME280;42598;53.802;-1.632;2023-02-04T00:48:59;102456.10;;;12.50;67.77
48888;BME280;42598;53.802;-1.632;2023-02-04T00:51:27;102455.41;;;12.06;69.09
48888;BME280;42598;53.802;-1.632;2023-02-04T00:53:54;102454.94;;;12.38;67.26
48888;BME280;42598;53.802;-1.632;2023-02-04T00:56:21;102458.04;;;12.90;66.66
48888;BME280;42598;53.802;-1.632;2023-02-04T00:58:48;102460.30;;;12.97;66.61
48888;BME280;42598;53.802;-1.632;2023-02-04T01:01:15;102456.24;;;12.39;66.84
48888;BME280;42598;53.802;-1.632;2023-02-04T01:03:44;102458.10;;;11.53;70.20
48888;BME280;42598;53.802;-1.632;2023-02-04T01:06:11;102458.22;;;12.52;66.99
48888;BME280;42598;53.802;-1.632;2023-02-04T01:08:38;102460.72;;;12.90;66.71
48888;BME280;42598;53.802;-1.632;2023-02-04T01:11:05;102461.76;;;9.81;74.23
48888;BME280;42598;53.802;-1.632;2023-02-04T01:13:37;102462.83;;;10.40;75.71
48888;BME280;42598;53.802;-1.632;2023-02-04T01:16:04;102465.31;;;10.88;75.67
48888;BME280;42598;53.802;-1.632;2023-02-04T01:18:32;102465.84;;;12.31;69.50
48888;BME280;42598;53.802;-1.632;2023-02-04T01:20:59;102467.07;;;12.18;69.98
48888;BME280;42598;53.802;-1.632;2023-02-04T01:23:26;102469.67;;;12.03;69.35
48888;BME280;42598;53.802;-1.632;2023-02-04T01:25:53;102471.29;;;11.97;70.35
48888;BME280;42598;53.802;-1.632;2023-02-04T01:28:20;102473.35;;;13.24;66.17
48888;BME280;42598;53.802;-1.632;2023-02-04T01:30:48;102479.03;;;12.77;66.35
48888;BME280;42598;53.802;-1.632;2023-02-04T01:33:15;102479.09;;;12.83;66.93
48888;BME280;42598;53.802;-1.632;2023-02-04T01:35:43;102474.97;;;12.70;66.38
48888;BME280;42598;53.802;-1.632;2023-02-04T01:38:12;102475.36;;;12.05;68.34
48888;BME280;42598;53.802;-1.632;2023-02-04T01:40:40;102475.60;;;12.61;66.47
48888;BME280;42598;53.802;-1.632;2023-02-04T01:43:09;102481.51;;;11.28;69.92
48888;BME280;42598;53.802;-1.632;2023-02-04T01:45:37;102485.37;;;11.70;69.62
48888;BME280;42598;53.802;-1.632;2023-02-04T01:48:05;102484.15;;;11.76;69.76
48888;BME280;42598;53.802;-1.632;2023-02-04T01:50:33;102483.87;;;12.34;68.37
48888;BME280;42598;53.802;-1.632;2023-02-04T01:53:01;102484.46;;;12.76;66.36
48888;BME280;42598;53.802;-1.632;2023-02-04T01:55:31;102484.90;;;13.51;64.61
48888;BME280;42598;53.802;-1.632;2023-02-04T01:57:58;102485.96;;;13.03;64.97
48888;BME280;42598;53.802;-1.632;2023-02-04T02:00:28;102480.78;;;12.78;65.50
48888;BME280;42598;53.802;-1.632;2023-02-04T02:02:56;102480.16;;;13.46;64.61
48888;BME280;42598;53.802;-1.632;2023-02-04T02:05:25;102475.33;;;11.94;66.78
48888;BME280;42598;53.802;-1.632;2023-02-04T02:07:55;102474.18;;;12.17;67.13
48888;BME280;42598;53.802;-1.632;2023-02-04T02:10:23;102470.46;;;12.34;67.67
48888;BME280;42598;53.802;-1.632;2023-02-04T02:12:52;102469.94;;;12.28;67.70
48888;BME280;42598;53.802;-1.632;2023-02-04T02:15:21;102467.61;;;12.25;66.72
48888;BME280;42598;53.802;-1.632;2023-02-04T02:17:49;102466.27;;;12.18;66.81
48888;BME280;42598;53.802;-1.632;2023-02-04T02:20:20;102465.63;;;12.35;67.50
48888;BME280;42598;53.802;-1.632;2023-02-04T02:22:54;102471.55;;;12.95;65.94
48888;BME280;42598;53.802;-1.632;2023-02-04T02:25:24;102470.59;;;12.62;65.78
48888;BME280;42598;53.802;-1.632;2023-02-04T02:27:51;102467.38;;;11.90;68.25
48888;BME280;42598;53.802;-1.632;2023-02-04T02:30:19;102469.54;;;12.38;66.69
48888;BME280;42598;53.802;-1.632;2023-02-04T02:32:47;102471.49;;;11.90;69.03
48888;BME280;42598;53.802;-1.632;2023-02-04T02:35:16;102471.76;;;10.83;72.19
48888;BME280;42598;53.802;-1.632;2023-02-04T02:37:43;102469.28;;;11.14;72.53
48888;BME280;42598;53.802;-1.632;2023-02-04T02:40:11;102473.40;;;11.94;70.74
48888;BME280;42598;53.802;-1.632;2023-02-04T02:42:39;102468.35;;;11.72;69.60
48888;BME280;42598;53.802;-1.632;2023-02-04T02:45:22;102466.87;;;12.10;70.14
48888;BME280;42598;53.802;-1.632;2023-02-04T02:47:55;102468.99;;;11.96;70.13
48888;BME280;42598;53.802;-1.632;2023-02-04T02:50:25;102468.63;;;12.11;70.10
48888;BME280;42598;53.802;-1.632;2023-02-04T02:52:53;102468.71;;;12.22;68.64
48888;BME280;42598;53.802;-1.632;2023-02-04T02:55:23;102467.10;;;11.47;70.97
48888;BME280;42598;53.802;-1.632;2023-02-04T02:57:52;102469.40;;;11.24;71.72
48888;BME280;42598;53.802;-1.632;2023-02-04T03:00:22;102472.41;;;11.91;70.15
48888;BME280;42598;53.802;-1.632;2023-02-04T03:02:55;102471.50;;;12.02;69.96
48888;BME280;42598;53.802;-1.632;2023-02-04T03:05:24;102467.49;;;11.95;69.69
48888;BME280;42598;53.802;-1.632;2023-02-04T03:07:51;102468.06;;;12.22;68.96
48888;BME280;42598;53.802;-1.632;2023-02-04T03:10:18;102465.76;;;12.34;68.57
48888;BME280;42598;53.802;-1.632;2023-02-04T03:12:46;102467.83;;;12.31;68.15
48888;BME280;42598;53.802;-1.632;2023-02-04T03:15:14;102469.91;;;12.63;67.86
48888;BME280;42598;53.802;-1.632;2023-02-04T03:17:42;102474.18;;;11.89;70.21
48888;BME280;42598;53.802;-1.632;2023-02-04T03:20:13;102471.40;;;10.79;73.07
48888;BME280;42598;53.802;-1.632;2023-02-04T03:22:41;102475.25;;;12.21;70.37
48888;BME280;42598;53.802;-1.632;2023-02-04T03:25:08;102473.75;;;12.29;68.83
48888;BME280;42598;53.802;-1.632;2023-02-04T03:27:35;102472.01;;;12.60;67.93
48888;BME280;42598;53.802;-1.632;2023-02-04T03:30:04;102469.95;;;12.49;69.56
48888;BME280;42598;53.802;-1.632;2023-02-04T03:32:32;102466.92;;;12.40;70.21
48888;BME280;42598;53.802;-1.632;2023-02-04T03:34:58;102467.60;;;11.26;75.15
48888;BME280;42598;53.802;-1.632;2023-02-04T03:37:25;102470.42;;;11.18;76.09
48888;BME280;42598;53.802;-1.632;2023-02-04T03:39:52;102469.94;;;10.93;76.49
48888;BME280;42598;53.802;-1.632;2023-02-04T03:42:19;102468.71;;;11.25;76.44
48888;BME280;42598;53.802;-1.632;2023-02-04T03:44:47;102468.59;;;11.03;76.46
48888;BME280;42598;53.802;-1.632;2023-02-04T03:47:14;102470.85;;;11.59;75.17
48888;BME280;42598;53.802;-1.632;2023-02-04T03:49:41;102469.04;;;11.50;75.39
48888;BME280;42598;53.802;-1.632;2023-02-04T03:52:07;102470.75;;;11.48;75.66
48888;BME280;42598;53.802;-1.632;2023-02-04T03:54:34;102468.82;;;11.16;77.13
48888;BME280;42598;53.802;-1.632;2023-02-04T03:57:02;102466.58;;;11.19;77.50
48888;BME280;42598;53.802;-1.632;2023-02-04T03:59:29;102461.07;;;10.49;79.60
48888;BME280;42598;53.802;-1.632;2023-02-04T04:01:56;102463.78;;;11.58;76.32
48888;BME280;42598;53.802;-1.632;2023-02-04T04:04:23;102466.98;;;10.50;79.16
48888;BME280;42598;53.802;-1.632;2023-02-04T04:06:51;102469.58;;;10.80;78.47
48888;BME280;42598;53.802;-1.632;2023-02-04T04:09:20;102470.03;;;11.01;79.41
48888;BME280;42598;53.802;-1.632;2023-02-04T04:11:47;102470.96;;;11.31;75.53
48888;BME280;42598;53.802;-1.632;2023-02-04T04:14:14;102473.16;;;10.85;77.98
48888;BME280;42598;53.802;-1.632;2023-02-04T04:16:45;102472.67;;;10.33;80.03
48888;BME280;42598;53.802;-1.632;2023-02-04T04:19:12;102473.91;;;10.55;79.59
48888;BME280;42598;53.802;-1.632;2023-02-04T04:21:39;102472.77;;;10.67;80.01
48888;BME280;42598;53.802;-1.632;2023-02-04T04:24:06;102477.85;;;9.39;83.47
48888;BME280;42598;53.802;-1.632;2023-02-04T04:26:33;102478.21;;;10.14;81.46
48888;BME280;42598;53.802;-1.632;2023-02-04T04:29:00;102477.55;;;10.57;80.82
48888;BME280;42598;53.802;-1.632;2023-02-04T04:31:27;102481.26;;;8.98;88.25
48888;BME280;42598;53.802;-1.632;2023-02-04T04:33:54;102480.18;;;9.87;86.50
48888;BME280;42598;53.802;-1.632;2023-02-04T04:36:22;102481.93;;;9.85;85.28
48888;BME280;42598;53.802;-1.632;2023-02-04T04:38:49;102484.77;;;10.47;82.72
48888;BME280;42598;53.802;-1.632;2023-02-04T04:41:17;102483.43;;;10.23;84.84
48888;BME280;42598;53.802;-1.632;2023-02-04T04:43:44;102484.59;;;9.65;86.05
48888;BME280;42598;53.802;-1.632;2023-02-04T04:46:10;102490.12;;;9.01;89.30
48888;BME280;42598;53.802;-1.632;2023-02-04T04:48:38;102497.54;;;8.71;92.10
48888;BME280;42598;53.802;-1.632;2023-02-04T04:51:05;102500.57;;;8.61;91.06
48888;BME280;42598;53.802;-1.632;2023-02-04T04:53:32;102496.04;;;10.38;85.20
48888;BME280;42598;53.802;-1.632;2023-02-04T04:55:59;102493.92;;;9.74;86.04
48888;BME280;42598;53.802;-1.632;2023-02-04T04:58:26;102495.19;;;9.32;89.58
48888;BME280;42598;53.802;-1.632;2023-02-04T05:00:54;102494.93;;;9.91;86.89
48888;BME280;42598;53.802;-1.632;2023-02-04T05:03:20;102491.13;;;9.20;88.89
48888;BME280;42598;53.802;-1.632;2023-02-04T05:05:48;102493.80;;;9.60;86.58
48888;BME280;42598;53.802;-1.632;2023-02-04T05:08:15;102495.32;;;9.10;88.78
48888;BME280;42598;53.802;-1.632;2023-02-04T05:10:42;102498.00;;;9.32;87.22
48888;BME280;42598;53.802;-1.632;2023-02-04T05:13:11;102497.29;;;9.90;83.65
48888;BME280;42598;53.802;-1.632;2023-02-04T05:15:38;102499.20;;;10.79;81.40
48888;BME280;42598;53.802;-1.632;2023-02-04T05:18:06;102500.87;;;10.73;79.46
48888;BME280;42598;53.802;-1.632;2023-02-04T05:20:34;102499.73;;;9.62;83.84
48888;BME280;42598;53.802;-1.632;2023-02-04T05:23:01;102503.32;;;10.43;81.81
48888;BME280;42598;53.802;-1.632;2023-02-04T05:25:28;102500.69;;;10.98;77.56
48888;BME280;42598;53.802;-1.632;2023-02-04T05:27:56;102504.82;;;11.77;75.76
48888;BME280;42598;53.802;-1.632;2023-02-04T05:30:23;102504.37;;;9.39;83.16
48888;BME280;42598;53.802;-1.632;2023-02-04T05:32:50;102501.71;;;10.87;78.40
48888;BME280;42598;53.802;-1.632;2023-02-04T05:35:18;102505.11;;;10.78;77.69
48888;BME280;42598;53.802;-1.632;2023-02-04T05:37:45;102506.16;;;10.41;80.57
48888;BME280;42598;53.802;-1.632;2023-02-04T05:40:13;102508.23;;;10.39;80.24
48888;BME280;42598;53.802;-1.632;2023-02-04T05:42:40;102511.14;;;9.94;80.70
48888;BME280;42598;53.802;-1.632;2023-02-04T05:45:09;102506.81;;;9.38;84.27
48888;BME280;42598;53.802;-1.632;2023-02-04T05:47:39;102506.40;;;9.81;83.89
48888;BME280;42598;53.802;-1.632;2023-02-04T05:50:07;102511.14;;;10.26;81.34
48888;BME280;42598;53.802;-1.632;2023-02-04T05:52:34;102507.08;;;10.29;81.71
48888;BME280;42598;53.802;-1.632;2023-02-04T05:55:01;102510.63;;;10.46;82.03
48888;BME280;42598;53.802;-1.632;2023-02-04T05:57:28;102512.41;;;10.42;79.47
48888;BME280;42598;53.802;-1.632;2023-02-04T05:59:55;102514.69;;;9.60;83.29
48888;BME280;42598;53.802;-1.632;2023-02-04T06:02:23;102514.95;;;10.07;84.74
48888;BME280;42598;53.802;-1.632;2023-02-04T06:04:55;102514.87;;;9.19;87.27
48888;BME280;42598;53.802;-1.632;2023-02-04T06:07:23;102517.15;;;8.58;89.25
48888;BME280;42598;53.802;-1.632;2023-02-04T06:09:50;102521.54;;;8.43;92.24
48888;BME280;42598;53.802;-1.632;2023-02-04T06:12:17;102517.19;;;9.52;86.55
48888;BME280;42598;53.802;-1.632;2023-02-04T06:14:44;102518.00;;;9.41;87.26
48888;BME280;42598;53.802;-1.632;2023-02-04T06:17:11;102521.83;;;9.35;86.09
48888;BME280;42598;53.802;-1.632;2023-02-04T06:19:38;102525.62;;;9.51;84.68
48888;BME280;42598;53.802;-1.632;2023-02-04T06:22:06;102526.48;;;10.14;81.50
48888;BME280;42598;53.802;-1.632;2023-02-04T06:24:33;102530.87;;;9.89;83.89
48888;BME280;42598;53.802;-1.632;2023-02-04T06:27:00;102529.12;;;9.07;86.21
48888;BME280;42598;53.802;-1.632;2023-02-04T06:29:27;102526.63;;;10.04;85.65
48888;BME280;42598;53.802;-1.632;2023-02-04T06:31:55;102529.38;;;9.29;86.91
48888;BME280;42598;53.802;-1.632;2023-02-04T06:34:22;102528.96;;;9.83;85.22
48888;BME280;42598;53.802;-1.632;2023-02-04T06:36:49;102527.98;;;9.49;84.95
48888;BME280;42598;53.802;-1.632;2023-02-04T06:39:16;102533.46;;;9.62;85.37
48888;BME280;42598;53.802;-1.632;2023-02-04T06:41:43;102536.93;;;9.92;85.36
48888;BME280;42598;53.802;-1.632;2023-02-04T06:44:10;102536.99;;;9.90;83.59
48888;BME280;42598;53.802;-1.632;2023-02-04T06:46:37;102538.13;;;10.09;82.69
48888;BME280;42598;53.802;-1.632;2023-02-04T06:49:04;102541.83;;;10.29;82.74
48888;BME280;42598;53.802;-1.632;2023-02-04T06:51:36;102553.02;;;8.84;89.48
48888;BME280;42598;53.802;-1.632;2023-02-04T06:54:03;102548.10;;;9.88;85.24
48888;BME280;42598;53.802;-1.632;2023-02-04T06:56:31;102551.00;;;10.08;84.77
48888;BME280;42598;53.802;-1.632;2023-02-04T06:58:57;102559.17;;;8.43;91.91
48888;BME280;42598;53.802;-1.632;2023-02-04T07:01:25;102559.98;;;8.82;91.88
48888;BME280;42598;53.802;-1.632;2023-02-04T07:03:52;102564.44;;;8.23;93.24
48888;BME280;42598;53.802;-1.632;2023-02-04T07:06:19;102562.09;;;8.63;96.47
48888;BME280;42598;53.802;-1.632;2023-02-04T07:08:46;102558.33;;;8.56;95.77
48888;BME280;42598;53.802;-1.632;2023-02-04T07:11:20;102554.94;;;8.54;96.33
48888;BME280;42598;53.802;-1.632;2023-02-04T07:13:47;102549.29;;;9.23;91.56
48888;BME280;42598;53.802;-1.632;2023-02-04T07:16:15;102551.94;;;9.37;91.15
48888;BME280;42598;53.802;-1.632;2023-02-04T07:18:42;102548.10;;;10.22;86.42
48888;BME280;42598;53.802;-1.632;2023-02-04T07:21:09;102553.40;;;8.82;91.14
48888;BME280;42598;53.802;-1.632;2023-02-04T07:23:37;102557.53;;;8.25;91.68
48888;BME280;42598;53.802;-1.632;2023-02-04T07:26:16;102560.43;;;8.37;92.48
48888;BME280;42598;53.802;-1.632;2023-02-04T07:28:49;102559.16;;;8.78;89.05
48888;BME280;42598;53.802;-1.632;2023-02-04T07:31:16;102558.10;;;8.81;87.77
48888;BME280;42598;53.802;-1.632;2023-02-04T07:33:43;102549.77;;;9.58;86.38
48888;BME280;42598;53.802;-1.632;2023-02-04T07:36:11;102555.67;;;9.46;83.50
48888;BME280;42598;53.802;-1.632;2023-02-04T07:38:38;102558.85;;;9.27;85.18
48888;BME280;42598;53.802;-1.632;2023-02-04T07:41:05;102570.39;;;9.21;85.24
48888;BME280;42598;53.802;-1.632;2023-02-04T07:43:33;102576.72;;;8.55;88.22
48888;BME280;42598;53.802;-1.632;2023-02-04T07:45:59;102579.49;;;9.06;83.59
48888;BME280;42598;53.802;-1.632;2023-02-04T07:48:27;102578.42;;;9.53;84.13
48888;BME280;42598;53.802;-1.632;2023-02-04T07:50:53;102576.43;;;10.49;79.63
48888;BME280;42598;53.802;-1.632;2023-02-04T07:53:21;102578.23;;;9.58;82.95
48888;BME280;42598;53.802;-1.632;2023-02-04T07:55:48;102579.82;;;10.11;80.51
48888;BME280;42598;53.802;-1.632;2023-02-04T07:58:16;102577.24;;;10.71;78.30
48888;BME280;42598;53.802;-1.632;2023-02-04T08:00:43;102580.02;;;10.79;76.76
48888;BME280;42598;53.802;-1.632;2023-02-04T08:03:10;102577.61;;;10.65;77.23
48888;BME280;42598;53.802;-1.632;2023-02-04T08:05:37;102580.18;;;10.20;77.30
48888;BME280;42598;53.802;-1.632;2023-02-04T08:08:04;102581.53;;;10.28;77.90
48888;BME280;42598;53.802;-1.632;2023-02-04T08:10:31;102585.17;;;9.83;77.83
48888;BME280;42598;53.802;-1.632;2023-02-04T08:12:57;102582.36;;;10.56;77.55
48888;BME280;42598;53.802;-1.632;2023-02-04T08:15:25;102590.69;;;9.70;80.70
48888;BME280;42598;53.802;-1.632;2023-02-04T08:17:51;102590.99;;;8.50;84.53
48888;BME280;42598;53.802;-1.632;2023-02-04T08:20:18;102591.84;;;8.81;84.86
48888;BME280;42598;53.802;-1.632;2023-02-04T08:22:46;102594.67;;;9.08;83.00
48888;BME280;42598;53.802;-1.632;2023-02-04T08:25:12;102593.33;;;8.68;85.70
48888;BME280;42598;53.802;-1.632;2023-02-04T08:27:40;102592.57;;;8.83;85.77
48888;BME280;42598;53.802;-1.632;2023-02-04T08:30:08;102588.58;;;8.24;88.39
48888;BME280;42598;53.802;-1.632;2023-02-04T08:32:36;102585.34;;;7.60;92.37
48888;BME280;42598;53.802;-1.632;2023-02-04T08:35:03;102588.25;;;8.14;92.52
48888;BME280;42598;53.802;-1.632;2023-02-04T08:37:30;102585.54;;;6.94;95.62
48888;BME280;42598;53.802;-1.632;2023-02-04T08:39:57;102585.60;;;7.37;95.42
48888;BME280;42598;53.802;-1.632;2023-02-04T08:42:24;102582.21;;;7.92;90.47
48888;BME280;42598;53.802;-1.632;2023-02-04T08:44:51;102581.86;;;8.31;90.83
48888;BME280;42598;53.802;-1.632;2023-02-04T08:47:18;102589.06;;;7.58;92.25
48888;BME280;42598;53.802;-1.632;2023-02-04T08:49:46;102595.49;;;7.51;93.63
48888;BME280;42598;53.802;-1.632;2023-02-04T08:52:13;102594.38;;;7.82;88.97
48888;BME280;42598;53.802;-1.632;2023-02-04T08:54:39;102596.37;;;7.81;91.32
48888;BME280;42598;53.802;-1.632;2023-02-04T08:57:06;102595.55;;;7.32;93.21
48888;BME280;42598;53.802;-1.632;2023-02-04T08:59:33;102590.46;;;7.82;89.43
48888;BME280;42598;53.802;-1.632;2023-02-04T09:02:00;102591.63;;;8.89;85.13
48888;BME280;42598;53.802;-1.632;2023-02-04T09:04:29;102591.46;;;7.51;89.16
48888;BME280;42598;53.802;-1.632;2023-02-04T09:06:56;102598.34;;;7.70;87.74
48888;BME280;42598;53.802;-1.632;2023-02-04T09:09:23;102598.42;;;8.16;86.76
48888;BME280;42598;53.802;-1.632;2023-02-04T09:11:51;102593.95;;;7.11;90.99
48888;BME280;42598;53.802;-1.632;2023-02-04T09:14:18;102596.39;;;7.64;89.08
48888;BME280;42598;53.802;-1.632;2023-02-04T09:16:45;102598.30;;;7.37;89.39
48888;BME280;42598;53.802;-1.632;2023-02-04T09:19:12;102596.83;;;7.58;88.27
48888;BME280;42598;53.802;-1.632;2023-02-04T09:21:39;102601.18;;;7.48;87.38
48888;BME280;42598;53.802;-1.632;2023-02-04T09:24:06;102597.24;;;7.56;86.65
48888;BME280;42598;53.802;-1.632;2023-02-04T09:26:33;102600.75;;;7.29;86.37
48888;BME280;42598;53.802;-1.632;2023-02-04T09:29:00;102601.02;;;7.33;87.32
48888;BME280;42598;53.802;-1.632;2023-02-04T09:31:27;102606.65;;;7.43;84.71
48888;BME280;42598;53.802;-1.632;2023-02-04T09:33:54;102609.30;;;7.60;82.10
48888;BME280;42598;53.802;-1.632;2023-02-04T09:36:22;102613.74;;;7.71;83.35
48888;BME280;42598;53.802;-1.632;2023-02-04T09:38:49;102616.95;;;7.04;85.12
48888;BME280;42598;53.802;-1.632;2023-02-04T09:41:17;102614.19;;;8.05;82.87
48888;BME280;42598;53.802;-1.632;2023-02-04T09:43:45;102615.34;;;8.01;80.87
48888;BME280;42598;53.802;-1.632;2023-02-04T09:46:18;102617.42;;;7.61;81.90
48888;BME280;42598;53.802;-1.632;2023-02-04T09:48:48;102626.51;;;7.69;81.93
48888;BME280;42598;53.802;-1.632;2023-02-04T09:51:18;102630.93;;;6.96;84.60
48888;BME280;42598;53.802;-1.632;2023-02-04T09:53:47;102623.26;;;7.49;81.39
48888;BME280;42598;53.802;-1.632;2023-02-04T09:56:14;102625.79;;;9.26;77.00
48888;BME280;42598;53.802;-1.632;2023-02-04T09:58:42;102629.11;;;8.41;77.42
48888;BME280;42598;53.802;-1.632;2023-02-04T10:01:14;102635.05;;;7.51;80.69
48888;BME280;42598;53.802;-1.632;2023-02-04T10:03:44;102629.04;;;8.32;77.40
48888;BME280;42598;53.802;-1.632;2023-02-04T10:06:12;102633.46;;;8.36;76.45
48888;BME280;42598;53.802;-1.632;2023-02-04T10:08:40;102633.52;;;8.82;74.17
48888;BME280;42598;53.802;-1.632;2023-02-04T10:11:07;102640.86;;;8.26;75.10
48888;BME280;42598;53.802;-1.632;2023-02-04T10:13:37;102635.73;;;8.21;75.30
48888;BME280;42598;53.802;-1.632;2023-02-04T10:16:12;102635.02;;;8.43;77.01
48888;BME280;42598;53.802;-1.632;2023-02-04T10:18:39;102639.99;;;8.43;74.92
48888;BME280;42598;53.802;-1.632;2023-02-04T10:21:14;102637.84;;;8.32;74.79
48888;BME280;42598;53.802;-1.632;2023-02-04T10:23:45;102636.86;;;8.76;73.53
48888;BME280;42598;53.802;-1.632;2023-02-04T10:26:18;102640.78;;;9.74;70.54
48888;BME280;42598;53.802;-1.632;2023-02-04T10:28:46;102643.12;;;9.26;71.98
48888;BME280;42598;53.802;-1.632;2023-02-04T10:31:31;102644.72;;;7.91;74.81
48888;BME280;42598;53.802;-1.632;2023-02-04T10:34:04;102644.56;;;7.68;76.31
48888;BME280;42598;53.802;-1.632;2023-02-04T10:36:32;102648.73;;;8.85;72.32
48888;BME280;42598;53.802;-1.632;2023-02-04T10:38:59;102647.53;;;8.67;71.90
48888;BME280;42598;53.802;-1.632;2023-02-04T10:41:27;102642.86;;;8.01;73.59
48888;BME280;42598;53.802;-1.632;2023-02-04T10:44:02;102642.68;;;8.00;73.98
48888;BME280;42598;53.802;-1.632;2023-02-04T10:46:29;102642.90;;;8.87;71.28
48888;BME280;42598;53.802;-1.632;2023-02-04T10:48:57;102644.09;;;8.35;71.49
48888;BME280;42598;53.802;-1.632;2023-02-04T10:51:24;102640.06;;;9.02;70.59
48888;BME280;42598;53.802;-1.632;2023-02-04T10:53:51;102633.05;;;9.10;69.10
48888;BME280;42598;53.802;-1.632;2023-02-04T10:56:21;102640.58;;;9.02;68.42
48888;BME280;42598;53.802;-1.632;2023-02-04T10:58:48;102647.49;;;9.27;67.98
48888;BME280;42598;53.802;-1.632;2023-02-04T11:01:16;102649.94;;;9.00;67.74
48888;BME280;42598;53.802;-1.632;2023-02-04T11:03:44;102647.96;;;9.09;66.47
48888;BME280;42598;53.802;-1.632;2023-02-04T11:06:13;102651.21;;;9.53;64.83
48888;BME280;42598;53.802;-1.632;2023-02-04T11:08:42;102657.17;;;8.46;66.52
48888;BME280;42598;53.802;-1.632;2023-02-04T11:11:15;102660.19;;;8.86;63.96
48888;BME280;42598;53.802;-1.632;2023-02-04T11:13:45;102663.56;;;8.78;63.88
48888;BME280;42598;53.802;-1.632;2023-02-04T11:16:25;102664.72;;;8.07;66.63
48888;BME280;42598;53.802;-1.632;2023-02-04T11:18:54;102665.93;;;6.80;69.51
48888;BME280;42598;53.802;-1.632;2023-02-04T11:21:25;102667.57;;;7.11;69.94
48888;BME280;42598;53.802;-1.632;2023-02-04T11:24:04;102666.93;;;7.87;69.63
48888;BME280;42598;53.802;-1.632;2023-02-04T11:26:34;102668.91;;;7.56;69.35
48888;BME280;42598;53.802;-1.632;2023-02-04T11:29:26;102661.44;;;7.71;68.12
48888;BME280;42598;53.802;-1.632;2023-02-04T11:31:59;102662.94;;;7.91;67.13
48888;BME280;42598;53.802;-1.632;2023-02-04T11:34:30;102657.65;;;7.11;69.14
48888;BME280;42598;53.802;-1.632;2023-02-04T11:37:09;102656.95;;;8.37;65.77
48888;BME280;42598;53.802;-1.632;2023-02-04T11:39:40;102660.24;;;8.36;64.42
48888;BME280;42598;53.802;-1.632;2023-02-04T11:42:17;102657.23;;;8.16;64.79
48888;BME280;42598;53.802;-1.632;2023-02-04T11:44:57;102659.42;;;7.52;64.77
48888;BME280;42598;53.802;-1.632;2023-02-04T11:47:26;102664.23;;;6.99;67.59
48888;BME280;42598;53.802;-1.632;2023-02-04T11:49:56;102659.59;;;7.02;69.95
48888;BME280;42598;53.802;-1.632;2023-02-04T11:52:23;102657.20;;;7.86;67.34
48888;BME280;42598;53.802;-1.632;2023-02-04T11:54:53;102656.82;;;7.84;66.59
48888;BME280;42598;53.802;-1.632;2023-02-04T11:57:20;102652.50;;;7.68;68.39
48888;BME280;42598;53.802;-1.632;2023-02-04T11:59:48;102642.78;;;7.90;67.60
48888;BME280;42598;53.802;-1.632;2023-02-04T12:02:17;102639.64;;;9.61;62.49
48888;BME280;42598;53.802;-1.632;2023-02-04T12:04:55;102631.78;;;9.14;62.88
48888;BME280;42598;53.802;-1.632;2023-02-04T12:07:26;102635.54;;;8.77;62.45
48888;BME280;42598;53.802;-1.632;2023-02-04T12:09:55;102631.30;;;9.33;62.54
48888;BME280;42598;53.802;-1.632;2023-02-04T12:12:25;102633.57;;;8.51;63.66
48888;BME280;42598;53.802;-1.632;2023-02-04T12:14:59;102632.07;;;8.32;65.48
48888;BME280;42598;53.802;-1.632;2023-02-04T12:17:27;102624.69;;;7.88;66.79
48888;BME280;42598;53.802;-1.632;2023-02-04T12:19:54;102622.55;;;7.39;70.45
48888;BME280;42598;53.802;-1.632;2023-02-04T12:22:22;102621.85;;;8.24;68.26
48888;BME280;42598;53.802;-1.632;2023-02-04T12:24:49;102619.51;;;7.51;71.40
48888;BME280;42598;53.802;-1.632;2023-02-04T12:27:17;102620.19;;;7.93;68.10
48888;BME280;42598;53.802;-1.632;2023-02-04T12:29:44;102620.65;;;7.31;71.56
48888;BME280;42598;53.802;-1.632;2023-02-04T12:32:12;102623.01;;;7.70;71.97
48888;BME280;42598;53.802;-1.632;2023-02-04T12:34:40;102616.39;;;7.67;69.74
48888;BME280;42598;53.802;-1.632;2023-02-04T12:37:12;102618.66;;;7.49;69.93
48888;BME280;42598;53.802;-1.632;2023-02-04T12:39:39;102614.45;;;7.43;70.54
48888;BME280;42598;53.802;-1.632;2023-02-04T12:42:06;102621.10;;;7.92;69.21
48888;BME280;42598;53.802;-1.632;2023-02-04T12:44:32;102613.05;;;8.92;68.07
48888;BME280;42598;53.802;-1.632;2023-02-04T12:46:59;102614.22;;;8.75;66.96
48888;BME280;42598;53.802;-1.632;2023-02-04T12:49:26;102615.03;;;8.37;67.58
48888;BME280;42598;53.802;-1.632;2023-02-04T12:51:53;102610.78;;;8.55;66.40